Clinton, Washington
Current Conditions -  °F | °C
As of 8:16 AM on Thursday 29 Jan 2015 (Local Time) from KPAE Reporting Station
Scattered Clouds Scattered Clouds  
Wind Chill: 36°   Ceiling: Unl
Heat Index: 40°   Visibility: 10mi
Dew Point: 38°   Wind: 6mph
Humidity: 93%   Direction: 10°N
Pressure: 30.35"   Gusts: NA
Location:  47.98°N, 122.36°W
Report Text: KPAE 291616Z 01005KT 10SM SCT001 04/03 A3035 RMK AO2 T00440033
Loading
Personal Weather Stations






























Interactive Weather Map New forecast layout! Learn more

10-Day Weather Forecast

Advertisements
Track Severe Weather on mobile